KNFL/NFL METAR and TAF weather

Enter ICAO airport designator
Station Type Date Time Source
KNFL METAR 2020/07/09 17:56 UTC NOAA

KNFL 091756Z 26007KT 220V300 10SM CLR 28/00 A3000 RMK AO2 SLP130 T02830000 10283 20133 55002


Station Type Date Time Source
KNFL Decoded METAR 2020/07/09 17:56 UTC NOAA

FALLON NAVAL AIR STATION, NV, United States (KNFL) 39-26N 118-41W 1199M
Jul 09, 2020 - 01:56 PM EDT / 2020.07.09 1756 UTC
Wind: from the W (260 degrees) at 8 MPH (7 KT) (direction variable):0
Visibility: 10 mile(s):0
Sky conditions: clear
Temperature: 82.9 F (28.3 C)
Dew Point: 32.0 F (0.0 C)
Relative Humidity: 15%
Pressure (altimeter): 30 in. Hg (1015 hPa)
Pressure tendency: 0.01 inches (0.2 hPa) lower than three hours ago
ob: KNFL 091756Z 26007KT 220V300 10SM CLR 28/00 A3000 RMK AO2 SLP130 T02830000 10283 20133 55002
cycle: 18

Station Type Date Time Source
KNFL TAF 2020/07/09 15:59 UTC NOAA

TAF KNFL 0915/1015 VRB06KT 9999 SKC QNH2990INS
FM092100 28008KT 9999 SKC QNH2986INS
TEMPO 0923/1005 29014G22KT
FM100500 VRB06KT 9999 SKC QNH2995INS T35/0923Z T14/1012Z FS30155

Example: see airport list